createdAt,value
2018-09-12T00:01:34.913Z,92.30
2018-09-12T00:04:03.123Z,91.90
2018-09-12T00:06:31.345Z,91.70
2018-09-12T00:08:59.567Z,91.50
2018-09-12T00:11:27.863Z,91.80
2018-09-12T00:13:56.108Z,91.90
2018-09-12T00:16:24.324Z,91.50
2018-09-12T00:18:52.534Z,91.30
2018-09-12T00:21:20.781Z,91.00
2018-09-12T00:23:49.004Z,91.20
2018-09-12T00:26:17.263Z,91.50
2018-09-12T00:28:45.495Z,91.60
2018-09-12T00:31:13.736Z,91.90
2018-09-12T00:33:41.953Z,92.20
2018-09-12T00:36:10.176Z,92.10
2018-09-12T00:38:38.401Z,92.20
2018-09-12T00:41:06.629Z,92.10
2018-09-12T00:43:34.864Z,92.40
2018-09-12T00:46:03.100Z,92.40
2018-09-12T00:48:31.375Z,92.60
2018-09-12T00:50:59.615Z,92.90
2018-09-12T00:53:27.835Z,92.90
2018-09-12T00:55:56.073Z,93.10
2018-09-12T00:58:24.264Z,93.10
2018-09-12T01:00:52.497Z,93.20
2018-09-12T01:03:20.740Z,93.30
2018-09-12T01:05:48.969Z,93.40
2018-09-12T01:08:17.206Z,93.70
2018-09-12T01:10:45.426Z,93.60
2018-09-12T01:13:13.643Z,93.60
2018-09-12T01:15:41.895Z,93.40
2018-09-12T01:18:14.378Z,93.40
2018-09-12T01:20:42.599Z,93.40
2018-09-12T01:23:10.855Z,93.40
2018-09-12T01:25:39.077Z,93.30
2018-09-12T01:28:07.328Z,93.40
2018-09-12T01:30:35.572Z,93.70
2018-09-12T01:33:03.793Z,93.60
2018-09-12T01:35:31.997Z,93.70
2018-09-12T01:38:00.262Z,93.90
2018-09-12T01:40:28.472Z,94.00
2018-09-12T01:42:56.727Z,93.80
2018-09-12T01:45:24.967Z,93.70
2018-09-12T01:47:53.195Z,94.00
2018-09-12T01:50:21.448Z,94.40
2018-09-12T01:52:49.677Z,94.00
2018-09-12T01:55:17.892Z,94.00
2018-09-12T01:57:46.129Z,94.00
2018-09-12T02:00:16.266Z,94.10
2018-09-12T02:02:45.276Z,94.30
2018-09-12T02:05:13.502Z,94.80
2018-09-12T02:07:41.711Z,94.90
2018-09-12T02:10:11.533Z,95.10
2018-09-12T02:12:39.773Z,95.30
2018-09-12T02:15:07.999Z,95.40
2018-09-12T02:17:36.260Z,95.70
2018-09-12T02:20:05.019Z,95.70
2018-09-12T02:22:33.832Z,95.60
2018-09-12T02:25:02.158Z,95.80
2018-09-12T02:27:30.431Z,95.70
2018-09-12T02:29:58.631Z,95.60
2018-09-12T02:32:26.960Z,96.20
2018-09-12T02:34:55.172Z,96.00
2018-09-12T02:37:23.414Z,96.10
2018-09-12T02:39:51.667Z,96.20
2018-09-12T02:42:19.896Z,96.30
2018-09-12T02:44:48.102Z,97.20
2018-09-12T02:47:21.783Z,97.60
2018-09-12T02:49:49.983Z,98.20
2018-09-12T02:52:18.221Z,97.80
2018-09-12T02:54:46.432Z,98.50
2018-09-12T02:57:14.862Z,98.80
2018-09-12T02:59:45.443Z,98.80
2018-09-12T03:02:13.688Z,98.80
2018-09-12T03:04:41.933Z,98.80
2018-09-12T03:07:10.199Z,98.70
2018-09-12T03:09:38.395Z,98.60
2018-09-12T03:12:06.617Z,98.40
2018-09-12T03:14:34.841Z,98.10
2018-09-12T03:17:03.360Z,97.80
2018-09-12T03:19:31.678Z,97.80
2018-09-12T03:22:00.022Z,97.40
2018-09-12T03:24:28.257Z,97.10
2018-09-12T03:26:56.626Z,97.80
2018-09-12T03:29:24.852Z,97.20
2018-09-12T03:31:53.053Z,97.30
2018-09-12T03:34:21.712Z,97.40
2018-09-12T03:36:49.944Z,97.50
2018-09-12T03:39:18.189Z,97.50
2018-09-12T03:41:46.424Z,97.30
2018-09-12T03:44:14.651Z,97.70
2018-09-12T03:46:42.871Z,97.70
2018-09-12T03:49:11.768Z,98.10
2018-09-12T03:51:40.023Z,99.10
2018-09-12T03:54:08.282Z,99.20
2018-09-12T03:56:36.567Z,99.70
2018-09-12T03:59:05.116Z,99.90
2018-09-12T04:01:33.430Z,99.90
2018-09-12T04:04:18.579Z,99.90
2018-09-12T04:06:46.808Z,99.90
2018-09-12T04:09:15.081Z,99.90
2018-09-12T04:11:43.312Z,99.90
2018-09-12T04:14:11.522Z,99.90
2018-09-12T04:16:39.749Z,99.90
2018-09-12T04:19:08.013Z,99.90
2018-09-12T04:21:36.428Z,99.90
2018-09-12T04:24:04.726Z,99.90
2018-09-12T04:26:32.901Z,99.90
2018-09-12T04:29:01.125Z,99.90
2018-09-12T04:31:29.357Z,99.90
2018-09-12T04:33:57.592Z,99.90
2018-09-12T04:36:25.797Z,99.90
2018-09-12T04:38:54.260Z,99.90
2018-09-12T04:41:22.516Z,99.80
2018-09-12T04:43:50.804Z,99.50
2018-09-12T04:46:19.049Z,99.50
2018-09-12T04:48:47.348Z,98.80
2018-09-12T04:51:15.581Z,98.70
2018-09-12T04:53:43.855Z,98.40
2018-09-12T04:56:12.101Z,98.30
2018-09-12T04:58:40.327Z,98.30
2018-09-12T05:01:08.555Z,98.20
2018-09-12T05:03:36.780Z,98.10
2018-09-12T05:06:04.994Z,98.10
2018-09-12T05:08:33.321Z,97.90
2018-09-12T05:11:01.561Z,98.00
2018-09-12T05:13:30.003Z,97.80
2018-09-12T05:15:58.239Z,97.60
2018-09-12T05:18:26.540Z,97.30
2018-09-12T05:20:54.765Z,97.20
2018-09-12T05:23:23.027Z,96.90
2018-09-12T05:25:51.273Z,96.90
2018-09-12T05:28:19.591Z,97.10
2018-09-12T05:30:47.782Z,97.20
2018-09-12T05:33:16.001Z,97.00
2018-09-12T05:35:44.226Z,96.80
2018-09-12T05:38:12.645Z,96.80
2018-09-12T05:40:40.884Z,96.60
2018-09-12T05:43:09.112Z,97.00
2018-09-12T05:45:37.419Z,96.30
2018-09-12T05:48:05.793Z,96.10
2018-09-12T05:50:34.123Z,96.20
2018-09-12T05:53:04.244Z,95.90
2018-09-12T05:55:32.486Z,95.70
2018-09-12T05:58:00.708Z,95.60
2018-09-12T06:00:28.960Z,95.30
2018-09-12T06:02:57.826Z,95.30
2018-09-12T06:05:26.065Z,95.20
2018-09-12T06:07:54.304Z,94.80
2018-09-12T06:10:22.628Z,94.70
2018-09-12T06:12:50.818Z,94.30
2018-09-12T06:15:19.040Z,93.90
2018-09-12T06:17:47.258Z,93.60
2018-09-12T06:20:15.490Z,93.30
2018-09-12T06:22:43.733Z,93.30
2018-09-12T06:25:11.960Z,92.80
2018-09-12T06:27:40.176Z,92.30
2018-09-12T06:30:08.537Z,92.30
2018-09-12T06:32:36.742Z,91.90
2018-09-12T06:35:06.005Z,91.60
2018-09-12T06:37:34.236Z,91.40
2018-09-12T06:40:02.466Z,91.50
2018-09-12T06:42:30.814Z,91.20
2018-09-12T06:44:59.059Z,90.80
2018-09-12T06:47:27.292Z,90.60
2018-09-12T06:49:56.535Z,90.30
2018-09-12T06:52:24.766Z,90.10
2018-09-12T06:54:53.010Z,89.20
2018-09-12T06:57:21.383Z,87.50
2018-09-12T06:59:50.268Z,87.40
2018-09-12T07:02:18.584Z,86.20
2018-09-12T07:04:46.826Z,86.40
2018-09-12T07:07:15.033Z,86.20
2018-09-12T07:09:43.868Z,84.40
2018-09-12T07:12:12.083Z,82.70
2018-09-12T07:14:40.312Z,81.10
2018-09-12T07:17:08.503Z,75.30
2018-09-12T07:19:36.769Z,61.90
2018-09-12T07:22:04.993Z,52.40
2018-09-12T07:24:33.300Z,45.30
2018-09-12T07:27:01.468Z,40.20
2018-09-12T07:29:29.716Z,35.70
2018-09-12T07:31:57.958Z,33.20
2018-09-12T07:34:26.176Z,31.20
2018-09-12T07:36:54.430Z,30.10
2018-09-12T07:39:22.648Z,29.70
2018-09-12T07:41:50.890Z,28.70
2018-09-12T07:44:19.207Z,29.20
2018-09-12T07:46:47.438Z,29.50
2018-09-12T07:49:15.661Z,29.20
2018-09-12T07:51:44.644Z,28.70
2018-09-12T07:54:12.862Z,28.60
2018-09-12T07:56:41.163Z,29.00
2018-09-12T07:59:14.397Z,28.20
2018-09-12T08:01:42.810Z,27.90
2018-09-12T08:04:11.037Z,27.80
2018-09-12T08:06:39.305Z,28.30
2018-09-12T08:09:09.211Z,28.80
2018-09-12T08:11:37.451Z,28.20
2018-09-12T08:14:05.780Z,27.80
2018-09-12T08:16:34.055Z,27.40
2018-09-12T08:19:02.370Z,26.60
2018-09-12T08:21:30.531Z,26.40
2018-09-12T08:23:59.174Z,26.40
2018-09-12T08:26:27.444Z,26.00
2018-09-12T08:28:55.746Z,25.70
2018-09-12T08:31:23.998Z,26.20
2018-09-12T08:33:52.216Z,26.20
2018-09-12T08:36:20.504Z,26.00
2018-09-12T08:38:48.725Z,26.40
2018-09-12T08:41:17.013Z,25.90
2018-09-12T08:43:45.239Z,25.80
2018-09-12T08:46:13.505Z,26.90
2018-09-12T08:48:41.807Z,27.40
2018-09-12T08:51:10.057Z,27.50
2018-09-12T08:53:38.280Z,28.10
2018-09-12T08:56:06.509Z,27.60
2018-09-12T08:58:34.808Z,28.00
2018-09-12T09:01:03.045Z,27.00
2018-09-12T09:03:31.280Z,27.70
2018-09-12T09:05:59.494Z,28.80
2018-09-12T09:08:27.975Z,29.00
2018-09-12T09:10:56.206Z,29.10
2018-09-12T09:13:24.420Z,30.10
2018-09-12T09:15:52.673Z,30.10
2018-09-12T09:18:20.900Z,30.40
2018-09-12T09:20:49.134Z,29.90
2018-09-12T09:23:17.367Z,29.80
2018-09-12T09:25:45.570Z,29.80
2018-09-12T09:28:13.791Z,30.10
2018-09-12T09:30:42.014Z,30.10
2018-09-12T09:33:10.285Z,29.90
2018-09-12T09:35:38.642Z,30.50
2018-09-12T09:38:06.781Z,31.80
2018-09-12T09:40:34.999Z,32.90
2018-09-12T09:43:03.237Z,33.70
2018-09-12T09:45:31.471Z,32.10
2018-09-12T09:47:59.783Z,32.00
2018-09-12T09:50:27.940Z,32.10
2018-09-12T09:52:56.208Z,32.30
2018-09-12T09:55:24.415Z,32.10
2018-09-12T09:57:52.668Z,32.90
2018-09-12T10:00:26.100Z,34.10
2018-09-12T10:02:59.843Z,36.70
2018-09-12T10:05:33.399Z,38.50
2018-09-12T10:08:07.037Z,38.70
2018-09-12T10:10:35.497Z,38.40
2018-09-12T10:13:04.356Z,38.20
2018-09-12T10:15:32.558Z,38.20
2018-09-12T10:18:00.763Z,40.50
2018-09-12T10:20:28.996Z,40.70
2018-09-12T10:22:57.248Z,41.30
2018-09-12T10:25:25.471Z,42.20
2018-09-12T10:27:53.724Z,42.90
2018-09-12T10:30:21.928Z,42.80
2018-09-12T10:32:50.151Z,44.10
2018-09-12T10:35:18.377Z,43.20
2018-09-12T10:37:46.615Z,42.00
2018-09-12T10:40:14.841Z,40.70
2018-09-12T10:42:43.085Z,40.80
2018-09-12T10:45:11.301Z,41.20
2018-09-12T10:47:39.557Z,41.70
2018-09-12T10:50:07.747Z,43.00
2018-09-12T10:52:35.984Z,43.50
2018-09-12T10:55:04.192Z,43.10
2018-09-12T10:57:32.424Z,43.10
2018-09-12T11:00:00.865Z,43.80
2018-09-12T11:02:29.104Z,43.30
2018-09-12T11:04:57.375Z,43.00
2018-09-12T11:07:25.626Z,42.60
2018-09-12T11:09:53.901Z,41.80
2018-09-12T11:12:22.108Z,43.40
2018-09-12T11:14:50.320Z,43.40
2018-09-12T11:17:18.544Z,43.60
2018-09-12T11:19:46.753Z,45.50
2018-09-12T11:22:14.999Z,47.00
2018-09-12T11:24:43.268Z,46.10
2018-09-12T11:27:11.525Z,46.20
2018-09-12T11:29:39.760Z,47.10
2018-09-12T11:32:08.031Z,47.80
2018-09-12T11:34:36.267Z,48.20
2018-09-12T11:37:04.481Z,47.80
2018-09-12T11:39:32.703Z,48.00
2018-09-12T11:42:00.923Z,48.70
2018-09-12T11:44:29.170Z,47.80
2018-09-12T11:46:57.399Z,47.00
2018-09-12T11:49:25.636Z,46.70
2018-09-12T11:51:53.901Z,44.40
2018-09-12T11:54:22.196Z,45.90
2018-09-12T11:56:50.446Z,45.20
2018-09-12T11:59:18.732Z,43.80
2018-09-12T12:01:46.959Z,42.40
2018-09-12T12:04:15.246Z,41.30
2018-09-12T12:06:43.461Z,41.70
2018-09-12T12:09:11.810Z,40.70
2018-09-12T12:11:40.716Z,40.40
2018-09-12T12:14:08.959Z,41.30
2018-09-12T12:16:37.244Z,40.10
2018-09-12T12:19:05.572Z,40.60
2018-09-12T12:21:33.814Z,39.60
2018-09-12T12:24:02.227Z,40.30
2018-09-12T12:26:30.456Z,42.00
2018-09-12T12:28:58.688Z,40.10
2018-09-12T12:31:26.957Z,39.40
2018-09-12T12:33:55.239Z,37.20
2018-09-12T12:36:23.458Z,37.20
2018-09-12T12:38:51.708Z,38.10
2018-09-12T12:41:19.986Z,37.50
2018-09-12T12:43:48.167Z,38.40
2018-09-12T12:46:16.483Z,38.30
2018-09-12T12:48:44.749Z,39.40
2018-09-12T12:51:12.972Z,37.00
2018-09-12T12:53:41.233Z,38.20
2018-09-12T12:56:09.445Z,38.80
2018-09-12T12:58:37.702Z,38.20
2018-09-12T13:01:06.111Z,38.30
2018-09-12T13:03:34.340Z,37.90
2018-09-12T13:06:02.542Z,37.30
2018-09-12T13:08:30.792Z,38.40
2018-09-12T13:10:59.035Z,37.20
2018-09-12T13:13:27.293Z,37.10
2018-09-12T13:15:55.515Z,37.20
2018-09-12T13:18:23.773Z,38.00
2018-09-12T13:20:52.105Z,38.10
2018-09-12T13:23:20.368Z,38.10
2018-09-12T13:25:48.598Z,38.80
2018-09-12T13:28:16.808Z,38.40
2018-09-12T13:30:45.192Z,38.60
2018-09-12T13:33:13.404Z,39.70
2018-09-12T13:35:41.625Z,40.50
2018-09-12T13:38:09.836Z,41.20
2018-09-12T13:40:38.063Z,39.80
2018-09-12T13:43:06.343Z,40.60
2018-09-12T13:45:34.592Z,40.60
2018-09-12T13:48:02.816Z,40.60
2018-09-12T13:50:31.271Z,40.30
2018-09-12T13:52:59.531Z,40.00
2018-09-12T13:55:27.783Z,39.50
2018-09-12T13:57:56.025Z,38.90
2018-09-12T14:00:24.269Z,39.60
2018-09-12T14:02:52.494Z,39.50
2018-09-12T14:05:20.763Z,40.40
2018-09-12T14:07:49.152Z,40.00
2018-09-12T14:10:17.396Z,39.40
2018-09-12T14:12:45.607Z,38.90
2018-09-12T14:15:13.833Z,39.40
2018-09-12T14:17:42.061Z,40.30
2018-09-12T14:20:10.297Z,40.20
2018-09-12T14:22:38.581Z,41.20
2018-09-12T14:25:06.826Z,40.30
2018-09-12T14:27:35.048Z,39.40
2018-09-12T14:30:03.277Z,39.20
2018-09-12T14:32:31.497Z,39.30
2018-09-12T14:34:59.729Z,39.50
2018-09-12T14:37:27.945Z,38.80
2018-09-12T14:39:56.233Z,39.50
2018-09-12T14:42:24.484Z,43.60
2018-09-12T14:44:52.854Z,45.50
2018-09-12T14:47:21.085Z,46.10
2018-09-12T14:49:49.352Z,46.60
2018-09-12T14:52:18.009Z,47.90
2018-09-12T14:54:46.270Z,48.10
2018-09-12T14:57:14.516Z,49.30
2018-09-12T14:59:43.050Z,49.80
2018-09-12T15:02:11.401Z,50.40
2018-09-12T15:04:39.684Z,50.80
2018-09-12T15:07:07.940Z,51.90
2018-09-12T15:09:36.176Z,52.90
2018-09-12T15:12:04.612Z,53.10
2018-09-12T15:14:32.892Z,54.00
2018-09-12T15:17:01.133Z,54.60
2018-09-12T15:19:29.511Z,55.40
2018-09-12T15:21:57.857Z,55.70
2018-09-12T15:24:26.074Z,56.00
2018-09-12T15:26:54.390Z,55.50
2018-09-12T15:29:22.580Z,56.10
2018-09-12T15:31:50.808Z,55.60
2018-09-12T15:34:19.025Z,56.40
2018-09-12T15:36:47.483Z,56.60
2018-09-12T15:39:15.709Z,56.70
2018-09-12T15:41:43.970Z,56.20
2018-09-12T15:44:12.221Z,56.50
2018-09-12T15:46:40.493Z,56.70
2018-09-12T15:49:08.722Z,58.10
2018-09-12T15:51:36.941Z,58.40
2018-09-12T15:54:05.210Z,58.80
2018-09-12T15:56:33.450Z,59.30
2018-09-12T15:59:01.727Z,60.40
2018-09-12T16:01:29.977Z,60.20
2018-09-12T16:03:58.188Z,59.90
2018-09-12T16:06:26.451Z,60.10
2018-09-12T16:08:54.710Z,60.60
2018-09-12T16:11:22.964Z,62.00
2018-09-12T16:13:51.238Z,62.20
2018-09-12T16:16:19.508Z,61.50
2018-09-12T16:18:47.758Z,62.40
2018-09-12T16:21:16.000Z,63.10
2018-09-12T16:23:44.248Z,64.50
2018-09-12T16:26:12.638Z,64.20
2018-09-12T16:28:41.061Z,66.10
2018-09-12T16:31:09.358Z,66.50
2018-09-12T16:33:37.914Z,66.00
2018-09-12T16:36:06.028Z,67.60
2018-09-12T16:38:34.364Z,67.90
2018-09-12T16:41:02.605Z,68.10
2018-09-12T16:43:30.839Z,68.80
2018-09-12T16:45:59.072Z,69.20
2018-09-12T16:48:27.352Z,70.40
2018-09-12T16:50:55.654Z,71.00
2018-09-12T16:53:23.875Z,72.10
2018-09-12T16:55:52.138Z,72.80
2018-09-12T16:58:20.416Z,73.70
2018-09-12T17:00:48.683Z,74.80
2018-09-12T17:03:17.088Z,76.00
2018-09-12T17:05:45.382Z,77.40
2018-09-12T17:08:13.745Z,78.30
2018-09-12T17:10:42.007Z,79.40
2018-09-12T17:13:10.384Z,81.00
2018-09-12T17:15:38.684Z,82.10
2018-09-12T17:18:06.972Z,83.30
2018-09-12T17:20:35.202Z,85.30
2018-09-12T17:23:03.509Z,86.80
2018-09-12T17:25:32.434Z,88.10
2018-09-12T17:28:00.789Z,89.40
2018-09-12T17:30:29.020Z,90.00
2018-09-12T17:32:57.288Z,90.50
2018-09-12T17:35:25.564Z,91.20
2018-09-12T17:37:53.821Z,91.20
2018-09-12T17:40:22.070Z,91.70
2018-09-12T17:42:50.338Z,92.20
2018-09-12T17:45:18.574Z,92.80
2018-09-12T17:47:46.881Z,93.10
2018-09-12T17:50:15.228Z,93.50
2018-09-12T17:52:43.494Z,94.20
2018-09-12T17:55:11.925Z,94.30
2018-09-12T17:57:40.188Z,94.30
2018-09-12T18:00:08.479Z,94.50
2018-09-12T18:02:36.717Z,94.60
2018-09-12T18:05:05.002Z,95.00
2018-09-12T18:07:33.272Z,95.10
2018-09-12T18:10:01.549Z,95.90
2018-09-12T18:12:29.804Z,96.20
2018-09-12T18:14:58.074Z,96.70
2018-09-12T18:17:26.368Z,97.30
2018-09-12T18:19:54.614Z,97.90
2018-09-12T18:22:22.881Z,98.40
2018-09-12T18:24:51.222Z,98.70
2018-09-12T18:27:19.461Z,98.80
2018-09-12T18:29:49.071Z,98.70
2018-09-12T18:32:17.321Z,98.90
2018-09-12T18:34:45.563Z,98.90
2018-09-12T18:37:13.827Z,98.90
2018-09-12T18:39:43.024Z,99.00
2018-09-12T18:42:11.280Z,99.10
2018-09-12T18:44:39.512Z,98.80
2018-09-12T18:47:07.781Z,97.80
2018-09-12T18:49:36.020Z,98.00
2018-09-12T18:52:04.272Z,98.20
2018-09-12T18:54:32.516Z,98.20
2018-09-12T18:57:00.740Z,98.30
2018-09-12T18:59:28.994Z,98.40
2018-09-12T19:01:57.210Z,99.20
2018-09-12T19:04:25.494Z,99.60
2018-09-12T19:06:53.824Z,99.90
2018-09-12T19:09:22.010Z,99.90
2018-09-12T19:11:50.231Z,99.90
2018-09-12T19:14:18.529Z,99.90
2018-09-12T19:16:46.788Z,99.90
2018-09-12T19:19:15.038Z,99.90
2018-09-12T19:21:43.350Z,99.90
2018-09-12T19:24:11.616Z,99.90
2018-09-12T19:26:39.864Z,99.90
2018-09-12T19:29:08.084Z,99.90
2018-09-12T19:31:36.290Z,99.90
2018-09-12T19:34:04.545Z,99.90
2018-09-12T19:36:32.821Z,99.90
2018-09-12T19:39:01.078Z,99.90
2018-09-12T19:41:29.325Z,99.90
2018-09-12T19:43:57.620Z,99.90
2018-09-12T19:46:25.829Z,99.90
2018-09-12T19:48:54.109Z,99.90
2018-09-12T19:51:22.333Z,99.90
2018-09-12T19:53:50.612Z,99.90
2018-09-12T19:56:18.923Z,99.90
2018-09-12T19:58:47.217Z,99.90
2018-09-12T20:01:15.449Z,99.90
2018-09-12T20:03:43.677Z,99.90
2018-09-12T20:06:12.723Z,99.90
2018-09-12T20:08:40.973Z,99.90
2018-09-12T20:11:09.201Z,99.90
2018-09-12T20:13:37.461Z,99.90
2018-09-12T20:16:05.761Z,99.90
2018-09-12T20:18:33.952Z,99.90
2018-09-12T20:21:02.297Z,99.90
2018-09-12T20:23:30.780Z,99.90
2018-09-12T20:25:58.994Z,99.90
2018-09-12T20:28:27.273Z,99.30
2018-09-12T20:30:56.114Z,99.60
2018-09-12T20:33:24.496Z,99.20
2018-09-12T20:35:52.735Z,98.50
2018-09-12T20:38:21.008Z,98.30
2018-09-12T20:40:49.266Z,98.20
2018-09-12T20:43:18.649Z,97.90
2018-09-12T20:45:47.003Z,98.10
2018-09-12T20:48:15.296Z,98.30
2018-09-12T20:50:43.555Z,98.10
2018-09-12T20:53:11.806Z,98.10
2018-09-12T20:55:40.066Z,98.40
2018-09-12T20:58:08.307Z,98.60
2018-09-12T21:00:36.565Z,98.80
2018-09-12T21:03:04.786Z,98.70
2018-09-12T21:05:33.047Z,98.50
2018-09-12T21:08:01.295Z,98.50
2018-09-12T21:10:29.604Z,98.20
2018-09-12T21:12:57.855Z,98.30
2018-09-12T21:15:26.994Z,98.40
2018-09-12T21:17:55.225Z,98.60
2018-09-12T21:20:23.548Z,98.80
2018-09-12T21:22:51.785Z,99.00
2018-09-12T21:25:20.031Z,99.20
2018-09-12T21:27:48.293Z,99.70
2018-09-12T21:30:16.584Z,99.70
2018-09-12T21:32:44.864Z,99.90
2018-09-12T21:35:13.205Z,99.90
2018-09-12T21:37:41.483Z,99.90
2018-09-12T21:40:09.731Z,99.90
2018-09-12T21:42:37.985Z,99.90
2018-09-12T21:45:06.310Z,99.90
2018-09-12T21:47:34.562Z,99.90
2018-09-12T21:50:02.833Z,99.90
2018-09-12T21:52:31.121Z,99.90
2018-09-12T21:54:59.379Z,99.90
2018-09-12T21:57:27.656Z,99.90
2018-09-12T21:59:56.340Z,99.90
2018-09-12T22:02:24.603Z,99.90
2018-09-12T22:04:52.882Z,99.90
2018-09-12T22:07:22.309Z,99.90
2018-09-12T22:09:50.598Z,99.90
2018-09-12T22:12:19.000Z,99.90
2018-09-12T22:14:47.268Z,99.90
2018-09-12T22:17:15.488Z,99.90
2018-09-12T22:19:43.780Z,99.90
2018-09-12T22:22:11.998Z,99.90
2018-09-12T22:24:40.235Z,99.90
2018-09-12T22:27:08.477Z,99.90
2018-09-12T22:29:36.757Z,99.90
2018-09-12T22:32:04.999Z,99.90
2018-09-12T22:34:33.302Z,99.90
2018-09-12T22:37:01.580Z,99.90
2018-09-12T22:39:29.826Z,99.90
2018-09-12T22:41:58.048Z,99.90
2018-09-12T22:44:26.352Z,99.90
2018-09-12T22:46:54.628Z,99.90
2018-09-12T22:49:22.879Z,99.90
2018-09-12T22:51:51.162Z,99.90
2018-09-12T22:54:19.391Z,99.90
2018-09-12T22:56:47.789Z,99.90
2018-09-12T22:59:16.076Z,99.90
2018-09-12T23:01:44.521Z,99.90
2018-09-12T23:04:12.787Z,99.90
2018-09-12T23:06:41.041Z,99.90
2018-09-12T23:09:09.808Z,99.90
2018-09-12T23:11:38.502Z,99.90
2018-09-12T23:14:07.279Z,99.90
2018-09-12T23:16:35.673Z,99.90
2018-09-12T23:19:03.940Z,99.90
2018-09-12T23:21:32.237Z,99.90
2018-09-12T23:24:00.517Z,99.90
2018-09-12T23:26:28.768Z,99.90
2018-09-12T23:28:57.043Z,99.90
2018-09-12T23:31:25.277Z,99.90
2018-09-12T23:33:53.517Z,99.90
2018-09-12T23:36:21.808Z,99.90
2018-09-12T23:38:50.105Z,99.90
2018-09-12T23:41:18.367Z,99.90
2018-09-12T23:43:46.635Z,99.90
2018-09-12T23:46:14.920Z,99.90
2018-09-12T23:48:43.244Z,99.90
2018-09-12T23:51:11.528Z,99.90
2018-09-12T23:53:39.790Z,99.90
2018-09-12T23:56:08.087Z,99.90
2018-09-12T23:58:36.464Z,99.90
